Pennsburg, Pennsylvania
Current Conditions -  °F | °C
As of 4:54 PM on Sunday 25 Jan 2015 (Local Time) from KPTW Reporting Station
Scattered Clouds Scattered Clouds  
Wind Chill: 38°   Ceiling: Unl
Heat Index: 38°   Visibility: 10mi
Dew Point: 30°   Wind: 3mph
Humidity: 73%   Direction: 350°N
Pressure: 29.84"   Gusts: NA
Location:  40.39°N, 75.49°W
Report Text: KPTW 252154Z AUTO 35003KT 10SM SCT085 03/M01 A2984 RMK AO2 SLP104 T00331011
Loading
Personal Weather Stations






























Interactive Weather Map New forecast layout! Learn more

10-Day Weather Forecast

Advertisements
Track Severe Weather on mobile